createdAt,value
2023-01-13T00:00:22.714Z,0.24
2023-01-13T00:02:02.481Z,0.26
2023-01-13T00:03:42.235Z,0.25
2023-01-13T00:05:22.027Z,0.29
2023-01-13T00:07:01.828Z,0.26
2023-01-13T00:08:41.553Z,0.29
2023-01-13T00:10:21.308Z,0.26
2023-01-13T00:12:01.086Z,0.25
2023-01-13T00:13:40.859Z,0.24
2023-01-13T00:15:20.605Z,0.23
2023-01-13T00:17:00.373Z,0.24
2023-01-13T00:18:40.143Z,0.24
2023-01-13T00:20:19.913Z,0.23
2023-01-13T00:21:59.688Z,0.24
2023-01-13T00:23:39.458Z,0.23
2023-01-13T00:25:19.228Z,0.23
2023-01-13T00:26:58.989Z,0.24
2023-01-13T00:28:38.761Z,0.26
2023-01-13T00:30:18.522Z,0.26
2023-01-13T00:31:58.292Z,0.24
2023-01-13T00:33:38.060Z,0.23
2023-01-13T00:35:17.833Z,0.24
2023-01-13T00:36:57.594Z,0.23
2023-01-13T00:38:37.411Z,0.23
2023-01-13T00:40:17.111Z,0.26
2023-01-13T00:41:56.890Z,0.22
2023-01-13T00:43:36.704Z,0.23
2023-01-13T00:45:16.489Z,0.23
2023-01-13T00:46:56.184Z,0.21
2023-01-13T00:48:35.956Z,0.2
2023-01-13T00:50:15.744Z,0.22
2023-01-13T00:51:55.494Z,0.19
2023-01-13T00:53:35.272Z,0.21
2023-01-13T00:55:15.024Z,0.23
2023-01-13T00:56:54.829Z,0.2
2023-01-13T00:58:34.573Z,0.23
2023-01-13T01:00:14.333Z,0.23
2023-01-13T01:01:54.094Z,0.22
2023-01-13T01:03:33.875Z,0.21
2023-01-13T01:05:13.630Z,0.22
2023-01-13T01:06:53.435Z,0.26
2023-01-13T01:08:33.176Z,0.26
2023-01-13T01:10:13.010Z,0.23
2023-01-13T01:11:52.812Z,0.25
2023-01-13T01:13:32.484Z,0.25
2023-01-13T01:15:12.375Z,0.25
2023-01-13T01:16:52.001Z,0.24
2023-01-13T01:18:31.800Z,0.22
2023-01-13T01:20:11.551Z,0.24
2023-01-13T01:21:51.381Z,0.23
2023-01-13T01:23:31.076Z,0.23
2023-01-13T01:25:10.849Z,0.22
2023-01-13T01:26:50.606Z,0.23
2023-01-13T01:28:30.384Z,0.25
2023-01-13T01:30:10.202Z,0.23
2023-01-13T01:31:49.903Z,0.22
2023-01-13T01:33:29.673Z,0.22
2023-01-13T01:35:09.451Z,0.18
2023-01-13T01:36:49.206Z,0.22
2023-01-13T01:38:28.992Z,0.23
2023-01-13T01:40:08.767Z,0.2
2023-01-13T01:41:48.515Z,0.24
2023-01-13T01:43:28.274Z,0.23
2023-01-13T01:45:08.072Z,0.23
2023-01-13T01:46:47.823Z,0.23
2023-01-13T01:48:27.578Z,0.22
2023-01-13T01:50:07.352Z,0.25
2023-01-13T01:51:47.130Z,0.22
2023-01-13T01:53:26.880Z,0.25
2023-01-13T01:55:06.640Z,0.23
2023-01-13T01:56:46.435Z,0.23
2023-01-13T01:58:26.194Z,0.24
2023-01-13T02:00:06.013Z,0.24
2023-01-13T02:01:45.743Z,0.26
2023-01-13T02:03:25.499Z,0.23
2023-01-13T02:05:05.261Z,0.24
2023-01-13T02:06:45.021Z,0.24
2023-01-13T02:08:24.804Z,0.22
2023-01-13T02:10:04.595Z,0.24
2023-01-13T02:11:44.387Z,0.26
2023-01-13T02:13:24.106Z,0.26
2023-01-13T02:15:03.940Z,0.24
2023-01-13T02:16:43.641Z,0.24
2023-01-13T02:18:23.406Z,0.23
2023-01-13T02:20:03.205Z,0.23
2023-01-13T02:21:42.918Z,0.22
2023-01-13T02:23:22.700Z,0.2
2023-01-13T02:25:02.477Z,0.2
2023-01-13T02:26:42.292Z,0.23
2023-01-13T02:28:22.000Z,0.2
2023-01-13T02:30:01.759Z,0.21
2023-01-13T02:31:41.524Z,0.23
2023-01-13T02:33:21.307Z,0.23
2023-01-13T02:35:01.098Z,0.21
2023-01-13T02:36:40.842Z,0.21
2023-01-13T02:38:20.594Z,0.19
2023-01-13T02:40:00.379Z,0.21
2023-01-13T02:41:40.140Z,0.21
2023-01-13T02:43:20.028Z,0.23
2023-01-13T02:44:59.672Z,0.21
2023-01-13T02:46:39.449Z,0.22
2023-01-13T02:48:19.217Z,0.26
2023-01-13T02:49:58.979Z,0.22
2023-01-13T02:51:38.735Z,0.24
2023-01-13T02:53:18.517Z,0.23
2023-01-13T02:54:58.274Z,0.24
2023-01-13T02:56:38.055Z,0.27
2023-01-13T02:58:17.836Z,0.23
2023-01-13T02:59:57.581Z,0.22
2023-01-13T03:01:37.394Z,0.24
2023-01-13T03:03:17.123Z,0.26
2023-01-13T03:04:56.892Z,0.25
2023-01-13T03:06:36.674Z,0.21
2023-01-13T03:08:16.422Z,0.23
2023-01-13T03:09:56.187Z,0.21
2023-01-13T03:11:35.949Z,0.21
2023-01-13T03:13:15.718Z,0.2
2023-01-13T03:14:55.494Z,0.19
2023-01-13T03:16:35.266Z,0.21
2023-01-13T03:18:15.024Z,0.24
2023-01-13T03:19:54.783Z,0.24
2023-01-13T03:21:34.561Z,0.23
2023-01-13T03:23:14.325Z,0.23
2023-01-13T03:24:54.105Z,0.24
2023-01-13T03:26:33.850Z,0.26
2023-01-13T03:28:13.627Z,0.23
2023-01-13T03:29:53.405Z,0.26
2023-01-13T03:31:33.162Z,0.26
2023-01-13T03:33:12.937Z,0.23
2023-01-13T03:34:52.691Z,0.27
2023-01-13T03:36:32.456Z,0.26
2023-01-13T03:38:12.217Z,0.24
2023-01-13T03:39:51.995Z,0.27
2023-01-13T03:41:31.761Z,0.26
2023-01-13T03:43:11.541Z,0.21
2023-01-13T03:44:51.308Z,0.21
2023-01-13T03:46:31.065Z,0.22
2023-01-13T03:48:10.841Z,0.21
2023-01-13T03:49:50.599Z,0.23
2023-01-13T03:51:30.365Z,0.22
2023-01-13T03:53:10.127Z,0.19
2023-01-13T03:54:49.922Z,0.22
2023-01-13T03:56:29.676Z,0.21
2023-01-13T03:58:09.467Z,0.22
2023-01-13T03:59:49.184Z,0.24
2023-01-13T04:01:28.952Z,0.21
2023-01-13T04:03:08.717Z,0.21
2023-01-13T04:04:48.479Z,0.22
2023-01-13T04:06:28.262Z,0.24
2023-01-13T04:08:07.993Z,0.24
2023-01-13T04:09:47.769Z,0.23
2023-01-13T04:11:27.526Z,0.24
2023-01-13T04:13:07.313Z,0.19
2023-01-13T04:14:47.081Z,0.21
2023-01-13T04:16:26.837Z,0.22
2023-01-13T04:18:06.608Z,0.24
2023-01-13T04:19:46.355Z,0.23
2023-01-13T04:21:26.122Z,0.24
2023-01-13T04:23:05.879Z,0.24
2023-01-13T04:24:45.637Z,0.24
2023-01-13T04:26:25.423Z,0.24
2023-01-13T04:28:05.184Z,0.23
2023-01-13T04:29:44.933Z,0.23
2023-01-13T04:31:24.725Z,0.27
2023-01-13T04:33:04.466Z,0.24
2023-01-13T04:34:44.229Z,0.23
2023-01-13T04:36:24.006Z,0.23
2023-01-13T04:38:03.761Z,0.2
2023-01-13T04:39:43.528Z,0.23
2023-01-13T04:41:23.285Z,0.24
2023-01-13T04:43:03.054Z,0.23
2023-01-13T04:44:42.821Z,0.24
2023-01-13T04:46:22.582Z,0.22
2023-01-13T04:48:02.352Z,0.24
2023-01-13T04:49:42.113Z,0.23
2023-01-13T04:51:21.875Z,0.23
2023-01-13T04:53:01.624Z,0.26
2023-01-13T04:54:41.404Z,0.26
2023-01-13T04:56:21.175Z,0.23
2023-01-13T04:58:00.925Z,0.23
2023-01-13T04:59:40.751Z,0.21
2023-01-13T05:01:20.457Z,0.24
2023-01-13T05:03:00.222Z,0.22
2023-01-13T05:04:39.980Z,0.24
2023-01-13T05:06:19.756Z,0.23
2023-01-13T05:07:59.524Z,0.27
2023-01-13T05:09:39.283Z,0.24
2023-01-13T05:11:19.040Z,0.26
2023-01-13T05:12:58.820Z,0.29
2023-01-13T05:14:38.580Z,0.28
2023-01-13T05:16:18.332Z,0.31
2023-01-13T05:17:58.114Z,0.32
2023-01-13T05:19:37.867Z,0.33
2023-01-13T05:21:17.628Z,0.34
2023-01-13T05:22:57.389Z,0.32
2023-01-13T05:24:37.167Z,0.31
2023-01-13T05:26:16.929Z,0.31
2023-01-13T05:27:56.682Z,0.35
2023-01-13T05:29:36.468Z,0.31
2023-01-13T05:31:16.228Z,0.31
2023-01-13T05:32:55.977Z,0.31
2023-01-13T05:34:35.761Z,0.26
2023-01-13T05:36:15.507Z,0.25
2023-01-13T05:37:55.284Z,0.25
2023-01-13T05:39:35.053Z,0.27
2023-01-13T05:41:14.812Z,0.31
2023-01-13T05:42:54.575Z,0.32
2023-01-13T05:44:34.338Z,0.32
2023-01-13T05:46:14.220Z,0.32
2023-01-13T05:47:53.852Z,0.3
2023-01-13T05:49:33.624Z,0.28
2023-01-13T05:51:13.393Z,0.28
2023-01-13T05:52:53.153Z,0.26
2023-01-13T05:54:32.927Z,0.25
2023-01-13T05:56:12.690Z,0.25
2023-01-13T05:57:52.463Z,0.29
2023-01-13T05:59:32.222Z,0.28
2023-01-13T06:01:11.976Z,0.29
2023-01-13T06:02:51.744Z,0.3
2023-01-13T06:04:31.523Z,0.31
2023-01-13T06:06:11.277Z,0.3
2023-01-13T06:07:51.026Z,0.33
2023-01-13T06:09:30.810Z,0.33
2023-01-13T06:11:10.594Z,0.34
2023-01-13T06:12:50.328Z,0.35
2023-01-13T06:14:30.095Z,0.38
2023-01-13T06:16:09.865Z,0.46
2023-01-13T06:17:49.620Z,0.52
2023-01-13T06:19:29.439Z,0.63
2023-01-13T06:21:09.172Z,0.66
2023-01-13T06:22:48.940Z,0.81
2023-01-13T06:24:28.679Z,0.96
2023-01-13T06:26:08.454Z,1.23
2023-01-13T06:27:48.204Z,1.51
2023-01-13T06:29:27.967Z,1.9
2023-01-13T06:31:07.736Z,2.35
2023-01-13T06:32:47.504Z,2.62
2023-01-13T06:34:27.268Z,2.87
2023-01-13T06:36:07.037Z,3.22
2023-01-13T06:37:46.798Z,2.53
2023-01-13T06:39:26.557Z,4.14
2023-01-13T06:41:06.312Z,6.17
2023-01-13T06:42:46.086Z,9.5
2023-01-13T06:44:25.853Z,10.88
2023-01-13T06:46:05.648Z,13.79
2023-01-13T06:47:45.391Z,16.96
2023-01-13T06:49:25.233Z,17.82
2023-01-13T06:51:04.915Z,20.63
2023-01-13T06:52:44.667Z,25.58
2023-01-13T06:54:24.441Z,29.98
2023-01-13T06:56:04.228Z,26.8
2023-01-13T06:57:43.976Z,26.81
2023-01-13T06:59:23.794Z,26.81
2023-01-13T07:01:03.566Z,26.77
2023-01-13T07:02:43.286Z,26.83
2023-01-13T07:04:23.045Z,26.84
2023-01-13T07:06:02.844Z,26.83
2023-01-13T07:07:42.548Z,26.83
2023-01-13T07:09:22.354Z,26.83
2023-01-13T07:11:02.077Z,26.81
2023-01-13T07:12:41.848Z,26.83
2023-01-13T07:14:21.606Z,26.83
2023-01-13T07:16:01.388Z,26.84
2023-01-13T07:17:41.135Z,26.86
2023-01-13T07:19:20.893Z,26.85
2023-01-13T07:21:00.677Z,26.85
2023-01-13T07:22:40.428Z,26.85
2023-01-13T07:24:20.237Z,26.86
2023-01-13T07:25:59.951Z,26.86
2023-01-13T07:27:39.726Z,26.9
2023-01-13T07:29:19.522Z,26.92
2023-01-13T07:30:59.255Z,26.92
2023-01-13T07:32:39.012Z,26.94
2023-01-13T07:34:18.797Z,26.94
2023-01-13T07:35:58.551Z,26.94
2023-01-13T07:37:38.317Z,26.92
2023-01-13T07:39:18.148Z,26.91
2023-01-13T07:40:57.902Z,26.89
2023-01-13T07:42:37.591Z,26.89
2023-01-13T07:44:17.449Z,26.9
2023-01-13T07:45:57.132Z,26.9
2023-01-13T07:47:36.895Z,26.93
2023-01-13T07:49:16.659Z,26.94
2023-01-13T07:50:56.437Z,26.95
2023-01-13T07:52:36.196Z,26.97
2023-01-13T07:54:15.963Z,37.4
2023-01-13T07:55:55.739Z,32
2023-01-13T07:57:35.488Z,26.97
2023-01-13T07:59:15.249Z,26.96
2023-01-13T08:00:55.025Z,26.99
2023-01-13T08:02:34.807Z,26.99
2023-01-13T08:04:14.670Z,26.99
2023-01-13T08:05:54.316Z,27
2023-01-13T08:07:34.093Z,27
2023-01-13T08:09:13.860Z,27.01
2023-01-13T08:10:53.673Z,27
2023-01-13T08:12:33.391Z,27.01
2023-01-13T08:14:13.165Z,27.05
2023-01-13T08:15:52.930Z,27.09
2023-01-13T08:17:32.706Z,27.11
2023-01-13T08:19:12.457Z,27.14
2023-01-13T08:20:52.236Z,27.18
2023-01-13T08:22:32.022Z,27.2
2023-01-13T08:24:11.890Z,27.23
2023-01-13T08:25:51.596Z,27.26
2023-01-13T08:27:31.324Z,27.33
2023-01-13T08:29:11.095Z,27.35
2023-01-13T08:30:50.850Z,27.34
2023-01-13T08:32:30.620Z,27.36
2023-01-13T08:34:10.478Z,27.36
2023-01-13T08:35:50.180Z,27.38
2023-01-13T08:37:29.937Z,27.51
2023-01-13T08:39:09.707Z,27.54
2023-01-13T08:40:49.480Z,27.79
2023-01-13T08:42:29.254Z,27.9
2023-01-13T08:44:09.012Z,28.03
2023-01-13T08:45:48.793Z,28.13
2023-01-13T08:47:28.615Z,28.2
2023-01-13T08:49:08.327Z,28.24
2023-01-13T08:50:48.125Z,28.33
2023-01-13T08:52:27.937Z,28.47
2023-01-13T08:54:07.635Z,28.58
2023-01-13T08:55:47.412Z,64.26
2023-01-13T08:57:27.180Z,66.19
2023-01-13T08:59:06.976Z,50.15
2023-01-13T09:00:46.867Z,28.53
2023-01-13T09:02:26.493Z,28.48
2023-01-13T09:04:06.319Z,28.48
2023-01-13T09:05:46.084Z,28.46
2023-01-13T09:07:25.805Z,28.41
2023-01-13T09:09:05.618Z,28.32
2023-01-13T09:10:45.330Z,28.23
2023-01-13T09:12:25.194Z,28.19
2023-01-13T09:14:04.913Z,28.17
2023-01-13T09:15:44.646Z,28.08
2023-01-13T09:17:24.407Z,28.01
2023-01-13T09:19:04.206Z,28
2023-01-13T09:20:43.976Z,28
2023-01-13T09:22:23.725Z,27.99
2023-01-13T09:24:03.479Z,27.96
2023-01-13T09:25:43.278Z,27.94
2023-01-13T09:27:23.021Z,27.95
2023-01-13T09:29:02.802Z,28.02
2023-01-13T09:30:42.731Z,28
2023-01-13T09:32:22.331Z,28.25
2023-01-13T09:34:02.124Z,28.19
2023-01-13T09:35:41.920Z,28.08
2023-01-13T09:37:21.651Z,28.15
2023-01-13T09:39:01.568Z,28.36
2023-01-13T09:40:41.223Z,28.57
2023-01-13T09:42:20.961Z,28.73
2023-01-13T09:44:00.756Z,28.72
2023-01-13T09:45:40.562Z,28.73
2023-01-13T09:47:20.272Z,28.76
2023-01-13T09:49:00.055Z,28.87
2023-01-13T09:50:39.808Z,28.89
2023-01-13T09:52:19.595Z,28.91
2023-01-13T09:53:59.358Z,28.91
2023-01-13T09:55:39.156Z,32.57
2023-01-13T09:57:18.965Z,68.4
2023-01-13T09:58:58.660Z,32.86
2023-01-13T10:00:38.442Z,28.83
2023-01-13T10:02:18.213Z,28.84
2023-01-13T10:03:57.985Z,28.84
2023-01-13T10:05:37.752Z,28.77
2023-01-13T10:07:17.513Z,28.7
2023-01-13T10:08:57.289Z,28.67
2023-01-13T10:10:37.076Z,28.66
2023-01-13T10:12:16.834Z,28.68
2023-01-13T10:13:56.600Z,28.75
2023-01-13T10:15:36.369Z,28.78
2023-01-13T10:17:16.139Z,28.79
2023-01-13T10:18:55.917Z,28.77
2023-01-13T10:20:35.754Z,28.79
2023-01-13T10:22:15.435Z,28.82
2023-01-13T10:23:55.242Z,29.05
2023-01-13T10:25:35.097Z,28.56
2023-01-13T10:27:14.825Z,28.92
2023-01-13T10:28:54.539Z,28.93
2023-01-13T10:30:34.315Z,28.95
2023-01-13T10:32:14.076Z,28.85
2023-01-13T10:33:53.837Z,29.4
2023-01-13T10:35:33.650Z,29.36
2023-01-13T10:37:13.378Z,29.43
2023-01-13T10:38:53.155Z,29.47
2023-01-13T10:40:32.924Z,29.45
2023-01-13T10:42:12.687Z,29.45
2023-01-13T10:43:52.466Z,29.5
2023-01-13T10:45:32.232Z,29.63
2023-01-13T10:47:12.001Z,29.14
2023-01-13T10:48:51.757Z,29.36
2023-01-13T10:50:31.591Z,29.67
2023-01-13T10:52:11.371Z,86.93
2023-01-13T10:53:51.085Z,85.33
2023-01-13T10:55:30.854Z,84.65
2023-01-13T10:57:10.631Z,83.97
2023-01-13T10:58:50.427Z,83.62
2023-01-13T11:00:30.155Z,83.84
2023-01-13T11:02:09.946Z,84.32
2023-01-13T11:03:49.794Z,85.37
2023-01-13T11:05:29.474Z,85.29
2023-01-13T11:07:09.237Z,89.7
2023-01-13T11:08:49.099Z,90.04
2023-01-13T11:10:28.768Z,88.66
2023-01-13T11:12:08.578Z,88.96
2023-01-13T11:13:48.354Z,85.87
2023-01-13T11:15:28.174Z,84.91
2023-01-13T11:17:07.854Z,85.19
2023-01-13T11:18:47.625Z,86.19
2023-01-13T11:20:27.412Z,86.06
2023-01-13T11:22:07.180Z,85.97
2023-01-13T11:23:46.947Z,86.68
2023-01-13T11:25:26.713Z,89.37
2023-01-13T11:27:06.495Z,87.81
2023-01-13T11:28:46.261Z,88.52
2023-01-13T11:30:26.032Z,87.83
2023-01-13T11:32:05.797Z,87.64
2023-01-13T11:33:45.559Z,87.68
2023-01-13T11:35:25.343Z,87.79
2023-01-13T11:37:05.100Z,87.69
2023-01-13T11:38:44.881Z,87.66
2023-01-13T11:40:24.660Z,87.7
2023-01-13T11:42:04.408Z,87.79
2023-01-13T11:43:44.244Z,87.69
2023-01-13T11:45:24.036Z,87.7
2023-01-13T11:47:03.729Z,87.85
2023-01-13T11:48:43.492Z,87.76
2023-01-13T11:50:23.277Z,87.73
2023-01-13T11:52:03.103Z,87.75
2023-01-13T11:53:42.815Z,87.97
2023-01-13T11:55:22.603Z,88.02
2023-01-13T11:57:02.368Z,87.98
2023-01-13T11:58:42.115Z,87.97
2023-01-13T12:00:21.912Z,87.96
2023-01-13T12:02:01.678Z,88.05
2023-01-13T12:03:41.438Z,87.85
2023-01-13T12:05:21.246Z,85.88
2023-01-13T12:07:01.018Z,87.99
2023-01-13T12:08:40.866Z,88.03
2023-01-13T12:10:20.503Z,84.05
2023-01-13T12:12:00.307Z,86.04
2023-01-13T12:13:40.062Z,88.89
2023-01-13T12:15:19.819Z,88.33
2023-01-13T12:16:59.653Z,82.72
2023-01-13T12:18:39.367Z,85.94
2023-01-13T12:20:19.140Z,87.98
2023-01-13T12:21:58.933Z,83.65
2023-01-13T12:23:38.680Z,88.38
2023-01-13T12:25:18.460Z,88.18
2023-01-13T12:26:58.208Z,88.06
2023-01-13T12:28:37.985Z,88.02
2023-01-13T12:30:17.760Z,88.03
2023-01-13T12:31:57.522Z,87.94
2023-01-13T12:33:37.308Z,87.76
2023-01-13T12:35:17.074Z,87.68
2023-01-13T12:36:56.852Z,87.67
2023-01-13T12:38:36.606Z,87.83
2023-01-13T12:40:16.388Z,87.78
2023-01-13T12:41:56.168Z,86.36
2023-01-13T12:43:35.922Z,87.79
2023-01-13T12:45:15.689Z,87.71
2023-01-13T12:46:55.467Z,87.7
2023-01-13T12:48:35.223Z,87.76
2023-01-13T12:50:14.997Z,87.91
2023-01-13T12:51:54.772Z,87.35
2023-01-13T12:53:34.537Z,88.13
2023-01-13T12:55:14.368Z,87.9
2023-01-13T12:56:54.081Z,87.22
2023-01-13T12:58:33.850Z,87.9
2023-01-13T13:00:13.616Z,87.64
2023-01-13T13:01:53.386Z,87.56
2023-01-13T13:03:33.156Z,87.66
2023-01-13T13:05:12.936Z,87.57
2023-01-13T13:06:52.696Z,86.97
2023-01-13T13:08:32.476Z,80.98
2023-01-13T13:10:12.250Z,87.93
2023-01-13T13:11:52.016Z,87.83
2023-01-13T13:13:31.792Z,87.7
2023-01-13T13:15:11.595Z,87.69
2023-01-13T13:16:51.331Z,87.63
2023-01-13T13:18:31.135Z,87.54
2023-01-13T13:20:10.875Z,87.26
2023-01-13T13:21:50.628Z,87.02
2023-01-13T13:23:30.423Z,86.72
2023-01-13T13:25:10.189Z,80.33
2023-01-13T13:26:49.978Z,85.69
2023-01-13T13:28:29.721Z,87.33
2023-01-13T13:30:09.489Z,87.19
2023-01-13T13:31:49.288Z,86.8
2023-01-13T13:33:29.079Z,86.94
2023-01-13T13:35:08.795Z,86.51
2023-01-13T13:36:48.580Z,86.1
2023-01-13T13:38:28.346Z,86.39
2023-01-13T13:40:08.185Z,85.81
2023-01-13T13:41:47.888Z,77.5
2023-01-13T13:43:27.646Z,56.7
2023-01-13T13:45:07.427Z,37.34
2023-01-13T13:46:47.218Z,82.55
2023-01-13T13:48:26.990Z,34.72
2023-01-13T13:50:06.735Z,29.4
2023-01-13T13:51:46.490Z,30.01
2023-01-13T13:53:26.458Z,31.07
2023-01-13T13:55:06.068Z,70.53
2023-01-13T13:56:45.826Z,86.49
2023-01-13T13:58:25.584Z,86.3
2023-01-13T14:00:05.396Z,86.1
2023-01-13T14:01:45.120Z,85.98
2023-01-13T14:03:24.906Z,83.48
2023-01-13T14:05:04.652Z,79.26
2023-01-13T14:06:44.477Z,85.59
2023-01-13T14:08:24.180Z,85.53
2023-01-13T14:10:03.944Z,82.94
2023-01-13T14:11:43.717Z,79.31
2023-01-13T14:13:23.488Z,48.15
2023-01-13T14:15:03.276Z,33.81
2023-01-13T14:16:42.995Z,40.41
2023-01-13T14:18:22.796Z,29.15
2023-01-13T14:20:02.598Z,29.09
2023-01-13T14:21:42.315Z,29.09
2023-01-13T14:23:22.110Z,29.11
2023-01-13T14:25:01.866Z,29.08
2023-01-13T14:26:41.674Z,29.03
2023-01-13T14:28:21.390Z,28.95
2023-01-13T14:30:01.154Z,28.95
2023-01-13T14:31:40.928Z,28.94
2023-01-13T14:33:20.703Z,28.92
2023-01-13T14:35:00.483Z,28.89
2023-01-13T14:36:40.234Z,29.17
2023-01-13T14:38:20.002Z,28.99
2023-01-13T14:39:59.767Z,28.88
2023-01-13T14:41:39.535Z,28.85
2023-01-13T14:43:19.301Z,28.83
2023-01-13T14:44:59.073Z,28.79
2023-01-13T14:46:38.857Z,28.78
2023-01-13T14:48:18.614Z,28.72
2023-01-13T14:49:58.389Z,28.7
2023-01-13T14:51:38.164Z,28.66
2023-01-13T14:53:17.986Z,28.61
2023-01-13T14:54:57.719Z,28.56
2023-01-13T14:56:37.464Z,28.51
2023-01-13T14:58:17.233Z,28.47
2023-01-13T14:59:57.011Z,28.42
2023-01-13T15:01:36.765Z,28.34
2023-01-13T15:03:16.538Z,28.33
2023-01-13T15:04:56.308Z,28.3
2023-01-13T15:06:36.062Z,28.25
2023-01-13T15:08:15.852Z,28.21
2023-01-13T15:09:55.596Z,28.17
2023-01-13T15:11:35.377Z,28.15
2023-01-13T15:13:15.147Z,28.09
2023-01-13T15:14:54.909Z,28.08
2023-01-13T15:16:34.674Z,40.8
2023-01-13T15:18:14.452Z,28.02
2023-01-13T15:19:54.205Z,27.99
2023-01-13T15:21:33.965Z,27.96
2023-01-13T15:23:13.734Z,27.94
2023-01-13T15:24:53.524Z,27.89
2023-01-13T15:26:33.279Z,27.85
2023-01-13T15:28:13.054Z,27.84
2023-01-13T15:29:52.827Z,27.81
2023-01-13T15:31:32.574Z,27.8
2023-01-13T15:33:12.343Z,27.76
2023-01-13T15:34:52.125Z,27.74
2023-01-13T15:36:31.888Z,27.71
2023-01-13T15:38:11.667Z,27.69
2023-01-13T15:39:51.427Z,27.64
2023-01-13T15:41:31.198Z,27.58
2023-01-13T15:43:10.960Z,27.54
2023-01-13T15:44:50.760Z,26.42
2023-01-13T15:46:30.516Z,22
2023-01-13T15:48:10.250Z,18.03
2023-01-13T15:49:50.050Z,14.89
2023-01-13T15:51:29.832Z,12.38
2023-01-13T15:53:09.551Z,10.2
2023-01-13T15:54:49.323Z,8.16
2023-01-13T15:56:29.187Z,6.02
2023-01-13T15:58:08.857Z,4.37
2023-01-13T15:59:48.668Z,3.22
2023-01-13T16:01:28.408Z,2.35
2023-01-13T16:03:08.176Z,1.74
2023-01-13T16:04:47.934Z,1.31
2023-01-13T16:06:27.698Z,1
2023-01-13T16:08:07.884Z,0.79
2023-01-13T16:09:47.266Z,0.65
2023-01-13T16:11:27.005Z,0.54
2023-01-13T16:13:06.765Z,0.47
2023-01-13T16:14:46.550Z,0.46
2023-01-13T16:16:26.308Z,0.4
2023-01-13T16:18:06.077Z,0.38
2023-01-13T16:19:45.843Z,0.37
2023-01-13T16:21:25.616Z,0.39
2023-01-13T16:23:05.393Z,0.37
2023-01-13T16:24:45.164Z,0.42
2023-01-13T16:26:25.047Z,0.41
2023-01-13T16:28:04.690Z,0.4
2023-01-13T16:29:44.483Z,0.36
2023-01-13T16:31:24.254Z,0.37
2023-01-13T16:33:04.047Z,0.33
2023-01-13T16:34:43.775Z,0.35
2023-01-13T16:36:23.564Z,0.37
2023-01-13T16:38:03.325Z,0.4
2023-01-13T16:39:43.092Z,0.41
2023-01-13T16:41:22.863Z,0.42
2023-01-13T16:43:02.804Z,0.37
2023-01-13T16:44:42.405Z,0.34
2023-01-13T16:46:22.178Z,0.33
2023-01-13T16:48:01.999Z,0.34
2023-01-13T16:49:41.705Z,0.35
2023-01-13T16:51:21.548Z,0.3
2023-01-13T16:53:01.266Z,0.32
2023-01-13T16:54:41.038Z,0.33
2023-01-13T16:56:20.802Z,0.3
2023-01-13T16:58:00.645Z,0.29
2023-01-13T16:59:40.346Z,0.3
2023-01-13T17:01:20.106Z,0.29
2023-01-13T17:02:59.867Z,0.3
2023-01-13T17:04:39.641Z,0.35
2023-01-13T17:06:19.408Z,0.32
2023-01-13T17:07:59.162Z,0.36
2023-01-13T17:09:38.935Z,0.3
2023-01-13T17:11:18.699Z,0.3
2023-01-13T17:12:58.471Z,0.29
2023-01-13T17:14:38.236Z,0.33
2023-01-13T17:16:17.999Z,0.35
2023-01-13T17:17:57.768Z,0.36
2023-01-13T17:19:37.545Z,0.33
2023-01-13T17:21:17.294Z,0.34
2023-01-13T17:22:57.079Z,0.37
2023-01-13T17:24:36.843Z,0.34
2023-01-13T17:26:16.601Z,0.34
2023-01-13T17:27:56.372Z,0.33
2023-01-13T17:29:36.190Z,0.34
2023-01-13T17:31:15.911Z,0.3
2023-01-13T17:32:55.683Z,0.3
2023-01-13T17:34:35.438Z,0.32
2023-01-13T17:36:15.207Z,0.33
2023-01-13T17:37:54.985Z,0.3
2023-01-13T17:39:34.746Z,0.31
2023-01-13T17:41:14.509Z,0.3
2023-01-13T17:42:54.279Z,0.33
2023-01-13T17:44:34.057Z,0.33
2023-01-13T17:46:13.821Z,0.31
2023-01-13T17:47:53.586Z,0.31
2023-01-13T17:49:33.352Z,0.3
2023-01-13T17:51:13.124Z,0.28
2023-01-13T17:52:52.976Z,0.29
2023-01-13T17:54:32.655Z,0.24
2023-01-13T17:56:12.436Z,0.24
2023-01-13T17:57:52.259Z,0.27
2023-01-13T17:59:31.971Z,0.26
2023-01-13T18:01:11.720Z,0.25
2023-01-13T18:02:51.478Z,0.26
2023-01-13T18:04:31.279Z,0.26
2023-01-13T18:06:11.019Z,0.27
2023-01-13T18:07:50.784Z,0.24
2023-01-13T18:09:30.557Z,0.29
2023-01-13T18:11:10.323Z,0.26
2023-01-13T18:12:50.084Z,0.28
2023-01-13T18:14:29.870Z,0.26
2023-01-13T18:16:09.618Z,0.29
2023-01-13T18:17:49.385Z,0.3
2023-01-13T18:19:29.166Z,0.32
2023-01-13T18:21:08.926Z,0.31
2023-01-13T18:22:48.701Z,0.29
2023-01-13T18:24:28.450Z,0.28
2023-01-13T18:26:08.212Z,0.25
2023-01-13T18:27:48.009Z,0.32
2023-01-13T18:29:27.747Z,0.32
2023-01-13T18:31:07.533Z,0.27
2023-01-13T18:32:47.287Z,0.26
2023-01-13T18:34:27.080Z,0.28
2023-01-13T18:36:06.847Z,0.3
2023-01-13T18:37:46.650Z,0.27
2023-01-13T18:39:26.403Z,0.3
2023-01-13T18:41:06.125Z,0.28
2023-01-13T18:42:45.896Z,0.23
2023-01-13T18:44:25.715Z,0.2
2023-01-13T18:46:05.416Z,0.23
2023-01-13T18:47:45.194Z,0.22
2023-01-13T18:49:25.080Z,0.26
2023-01-13T18:51:04.745Z,0.24
2023-01-13T18:52:44.509Z,0.25
2023-01-13T18:54:24.288Z,0.21
2023-01-13T18:56:04.104Z,0.24
2023-01-13T18:57:43.848Z,0.26
2023-01-13T18:59:23.631Z,0.23
2023-01-13T19:01:03.437Z,0.25
2023-01-13T19:02:43.107Z,0.25
2023-01-13T19:04:22.891Z,0.3
2023-01-13T19:06:02.742Z,0.26
2023-01-13T19:07:42.403Z,0.25
2023-01-13T19:09:22.179Z,0.31
2023-01-13T19:11:01.995Z,0.3
2023-01-13T19:12:41.709Z,0.29
2023-01-13T19:14:21.482Z,0.3
2023-01-13T19:16:01.234Z,0.3
2023-01-13T19:17:41.008Z,0.33
2023-01-13T19:19:20.774Z,0.34
2023-01-13T19:21:00.555Z,0.31
2023-01-13T19:22:40.376Z,0.34
2023-01-13T19:24:20.086Z,0.33
2023-01-13T19:25:59.866Z,0.32
2023-01-13T19:27:39.658Z,0.34
2023-01-13T19:29:19.407Z,0.32
2023-01-13T19:30:59.149Z,0.31
2023-01-13T19:32:38.913Z,0.32
2023-01-13T19:34:18.678Z,0.32
2023-01-13T19:35:58.451Z,0.3
2023-01-13T19:37:38.250Z,0.28
2023-01-13T19:39:17.978Z,0.27
2023-01-13T19:40:57.766Z,0.3
2023-01-13T19:42:37.531Z,0.28
2023-01-13T19:44:17.294Z,0.3
2023-01-13T19:45:57.053Z,0.28
2023-01-13T19:47:36.845Z,0.3
2023-01-13T19:49:16.593Z,0.25
2023-01-13T19:50:56.361Z,0.23
2023-01-13T19:52:36.132Z,0.2
2023-01-13T19:54:15.894Z,0.19
2023-01-13T19:55:55.655Z,0.22
2023-01-13T19:57:35.452Z,0.21
2023-01-13T19:59:15.196Z,0.19
2023-01-13T20:00:54.969Z,0.18
2023-01-13T20:02:34.730Z,0.2
2023-01-13T20:04:14.567Z,0.18
2023-01-13T20:05:54.260Z,0.19
2023-01-13T20:07:34.031Z,0.21
2023-01-13T20:09:13.797Z,0.19
2023-01-13T20:10:53.625Z,0.21
2023-01-13T20:12:33.341Z,0.19
2023-01-13T20:14:13.099Z,0.18
2023-01-13T20:15:52.875Z,0.19
2023-01-13T20:17:32.656Z,0.19
2023-01-13T20:19:12.394Z,0.2
2023-01-13T20:20:52.161Z,0.22
2023-01-13T20:22:32.073Z,0.21
2023-01-13T20:24:11.717Z,0.22
2023-01-13T20:25:51.473Z,0.22
2023-01-13T20:27:31.242Z,0.21
2023-01-13T20:29:11.016Z,0.22
2023-01-13T20:30:50.788Z,0.26
2023-01-13T20:32:30.535Z,0.21
2023-01-13T20:34:10.316Z,0.24
2023-01-13T20:35:50.091Z,0.21
2023-01-13T20:37:29.846Z,0.22
2023-01-13T20:39:09.610Z,0.28
2023-01-13T20:40:49.366Z,0.26
2023-01-13T20:42:29.149Z,0.26
2023-01-13T20:44:08.969Z,0.24
2023-01-13T20:45:48.717Z,0.27
2023-01-13T20:47:28.445Z,0.28
2023-01-13T20:49:08.215Z,0.26
2023-01-13T20:50:47.978Z,0.26
2023-01-13T20:52:27.747Z,0.24
2023-01-13T20:54:07.509Z,0.24
2023-01-13T20:55:47.286Z,0.26
2023-01-13T20:57:27.075Z,0.26
2023-01-13T20:59:06.817Z,0.25
2023-01-13T21:00:46.583Z,0.25
2023-01-13T21:02:26.351Z,0.24
2023-01-13T21:04:06.127Z,0.26
2023-01-13T21:05:45.880Z,0.26
2023-01-13T21:07:25.662Z,0.26
2023-01-13T21:09:05.436Z,0.23
2023-01-13T21:10:45.197Z,0.24
2023-01-13T21:12:24.956Z,0.22
2023-01-13T21:14:04.722Z,0.22
2023-01-13T21:15:44.485Z,0.27
2023-01-13T21:17:24.267Z,0.29
2023-01-13T21:19:04.028Z,0.26
2023-01-13T21:20:43.804Z,0.3
2023-01-13T21:22:23.564Z,0.26
2023-01-13T21:24:03.384Z,0.29
2023-01-13T21:25:43.100Z,0.26
2023-01-13T21:27:22.912Z,0.22
2023-01-13T21:29:02.649Z,0.22
2023-01-13T21:30:42.404Z,0.21
2023-01-13T21:32:22.167Z,0.18
2023-01-13T21:34:01.924Z,0.17
2023-01-13T21:35:41.725Z,0.2
2023-01-13T21:37:21.461Z,0.2
2023-01-13T21:39:01.223Z,0.17
2023-01-13T21:40:41.013Z,0.18
2023-01-13T21:42:20.775Z,0.2
2023-01-13T21:44:00.543Z,0.2
2023-01-13T21:45:40.305Z,0.21
2023-01-13T21:47:20.082Z,0.24
2023-01-13T21:48:59.834Z,0.28
2023-01-13T21:50:39.606Z,0.27
2023-01-13T21:52:19.392Z,0.29
2023-01-13T21:53:59.134Z,0.24